createdAt,value
2023-04-19T00:00:19.912Z,6.43
2023-04-19T00:02:49.270Z,6.68
2023-04-19T00:05:16.568Z,6.10
2023-04-19T00:07:43.617Z,5.75
2023-04-19T00:10:11.024Z,6.20
2023-04-19T00:12:38.046Z,7.22
2023-04-19T00:15:06.296Z,6.13
2023-04-19T00:17:34.666Z,5.70
2023-04-19T00:20:01.996Z,6.25
2023-04-19T00:22:28.976Z,6.15
2023-04-19T00:24:55.852Z,5.70
2023-04-19T00:27:22.988Z,5.50
2023-04-19T00:29:49.890Z,5.30
2023-04-19T00:32:17.465Z,5.82
2023-04-19T00:34:44.396Z,5.28
2023-04-19T00:37:11.376Z,5.72
2023-04-19T00:39:39.606Z,5.57
2023-04-19T00:42:13.723Z,5.53
2023-04-19T00:44:40.680Z,6.03
2023-04-19T00:47:07.626Z,5.88
2023-04-19T00:49:34.708Z,5.97
2023-04-19T00:52:01.689Z,6.15
2023-04-19T00:54:28.683Z,7.43
2023-04-19T00:56:56.979Z,5.85
2023-04-19T00:59:24.885Z,6.40
2023-04-19T01:01:52.086Z,5.75
2023-04-19T01:04:19.436Z,6.57
2023-04-19T01:06:47.058Z,6.40
2023-04-19T01:09:13.951Z,7.18
2023-04-19T01:11:43.322Z,8.32
2023-04-19T01:14:10.644Z,6.93
2023-04-19T01:16:39.101Z,6.97
2023-04-19T01:19:06.419Z,6.97
2023-04-19T01:21:33.473Z,7.22
2023-04-19T01:24:00.786Z,8.30
2023-04-19T01:26:27.771Z,8.18
2023-04-19T01:28:54.795Z,7.93
2023-04-19T01:31:27.724Z,8.23
2023-04-19T01:33:54.781Z,8.15
2023-04-19T01:36:21.812Z,8.32
2023-04-19T01:38:49.723Z,8.07
2023-04-19T01:41:16.676Z,8.55
2023-04-19T01:43:43.568Z,7.80
2023-04-19T01:46:10.843Z,7.72
2023-04-19T01:48:38.408Z,7.43
2023-04-19T01:51:05.424Z,7.88
2023-04-19T01:53:34.670Z,7.72
2023-04-19T01:56:01.685Z,8.70
2023-04-19T01:58:28.626Z,9.80
2023-04-19T02:00:55.580Z,9.40
2023-04-19T02:03:22.661Z,7.78
2023-04-19T02:05:50.115Z,6.75
2023-04-19T02:08:17.321Z,7.70
2023-04-19T02:10:44.232Z,7.65
2023-04-19T02:13:11.503Z,7.20
2023-04-19T02:15:38.459Z,7.55
2023-04-19T02:18:07.068Z,6.97
2023-04-19T02:20:34.306Z,6.68
2023-04-19T02:23:01.161Z,7.13
2023-04-19T02:25:28.306Z,8.95
2023-04-19T02:27:55.306Z,7.43
2023-04-19T02:30:22.551Z,7.32
2023-04-19T02:32:50.694Z,6.82
2023-04-19T02:35:17.684Z,6.82
2023-04-19T02:37:44.940Z,7.18
2023-04-19T02:40:12.004Z,7.25
2023-04-19T02:42:38.956Z,7.78
2023-04-19T02:45:06.731Z,6.70
2023-04-19T02:47:33.714Z,7.93
2023-04-19T02:50:00.966Z,7.35
2023-04-19T02:52:28.305Z,6.50
2023-04-19T02:54:55.324Z,8.93
2023-04-19T02:57:22.377Z,7.18
2023-04-19T02:59:49.345Z,6.78
2023-04-19T03:02:16.394Z,8.57
2023-04-19T03:04:43.638Z,8.05
2023-04-19T03:07:11.045Z,5.97
2023-04-19T03:09:40.124Z,6.65
2023-04-19T03:12:08.289Z,5.85
2023-04-19T03:14:35.302Z,6.68
2023-04-19T03:17:03.070Z,6.15
2023-04-19T03:19:30.865Z,7.95
2023-04-19T03:21:57.801Z,7.63
2023-04-19T03:24:31.818Z,7.50
2023-04-19T03:27:05.109Z,6.68
2023-04-19T03:29:32.182Z,7.82
2023-04-19T03:32:03.069Z,6.45
2023-04-19T03:34:30.403Z,7.82
2023-04-19T03:36:57.379Z,6.47
2023-04-19T03:39:25.074Z,6.20
2023-04-19T03:41:57.142Z,6.55
2023-04-19T03:44:33.761Z,8.23
2023-04-19T03:47:03.010Z,6.57
2023-04-19T03:49:34.263Z,6.55
2023-04-19T03:54:33.549Z,7.13
2023-04-19T03:57:01.685Z,6.00
2023-04-19T03:59:28.648Z,7.43
2023-04-19T04:01:56.160Z,5.93
2023-04-19T04:04:23.989Z,7.60
2023-04-19T04:06:58.410Z,6.55
2023-04-19T04:09:25.325Z,8.02
2023-04-19T04:11:52.591Z,8.32
2023-04-19T04:14:19.521Z,8.32
2023-04-19T04:16:47.240Z,6.65
2023-04-19T04:19:15.944Z,6.53
2023-04-19T04:22:08.333Z,6.80
2023-04-19T04:24:41.870Z,7.93
2023-04-19T04:27:22.764Z,8.23
2023-04-19T04:32:23.220Z,8.25
2023-04-19T04:34:54.431Z,6.97
2023-04-19T04:37:31.161Z,8.77
2023-04-19T04:39:58.735Z,8.63
2023-04-19T04:42:26.290Z,6.68
2023-04-19T04:44:54.004Z,7.90
2023-04-19T04:47:21.212Z,8.30
2023-04-19T04:49:53.793Z,8.63
2023-04-19T04:52:21.195Z,8.65
2023-04-19T04:55:11.272Z,6.25
2023-04-19T04:57:43.028Z,6.40
2023-04-19T05:00:15.602Z,6.55
2023-04-19T05:02:54.879Z,7.10
2023-04-19T05:05:29.814Z,6.60
2023-04-19T05:07:56.797Z,7.85
2023-04-19T05:10:23.907Z,8.60
2023-04-19T05:12:50.920Z,6.38
2023-04-19T05:15:18.004Z,7.15
2023-04-19T05:17:50.357Z,8.52
2023-04-19T05:20:18.395Z,6.65
2023-04-19T05:22:47.572Z,6.38
2023-04-19T05:25:14.542Z,6.72
2023-04-19T05:27:41.744Z,5.78
2023-04-19T05:30:09.549Z,6.05
2023-04-19T05:32:41.189Z,6.80
2023-04-19T05:35:11.377Z,6.63
2023-04-19T05:37:39.391Z,6.00
2023-04-19T05:40:09.927Z,5.97
2023-04-19T05:42:36.982Z,5.95
2023-04-19T05:45:06.564Z,8.25
2023-04-19T05:47:34.265Z,6.40
2023-04-19T05:50:24.162Z,8.55
2023-04-19T05:53:11.075Z,8.13
2023-04-19T05:55:38.138Z,6.70
2023-04-19T05:58:05.341Z,7.03
2023-04-19T06:00:32.551Z,6.85
2023-04-19T06:03:07.977Z,6.22
2023-04-19T06:05:35.243Z,7.68
2023-04-19T06:08:03.218Z,5.82
2023-04-19T06:10:40.368Z,7.43
2023-04-19T06:13:16.271Z,6.85
2023-04-19T06:15:43.628Z,6.35
2023-04-19T06:18:18.752Z,7.20
2023-04-19T06:20:47.328Z,6.45
2023-04-19T06:23:14.898Z,6.88
2023-04-19T06:25:42.154Z,6.50
2023-04-19T06:28:09.256Z,7.97
2023-04-19T06:30:36.230Z,6.75
2023-04-19T06:33:03.411Z,7.38
2023-04-19T06:35:32.825Z,7.03
2023-04-19T06:37:59.938Z,7.28
2023-04-19T06:40:28.961Z,7.20
2023-04-19T06:42:56.143Z,6.22
2023-04-19T06:45:23.177Z,8.35
2023-04-19T06:47:50.086Z,6.93
2023-04-19T06:50:17.032Z,7.07
2023-04-19T06:52:43.948Z,6.70
2023-04-19T06:55:11.164Z,7.05
2023-04-19T06:57:38.574Z,7.25
2023-04-19T07:00:08.624Z,7.45
2023-04-19T07:02:35.891Z,7.07
2023-04-19T07:05:03.818Z,6.70
2023-04-19T07:07:38.253Z,6.65
2023-04-19T07:10:05.773Z,6.78
2023-04-19T07:12:32.769Z,6.72
2023-04-19T07:14:59.749Z,8.60
2023-04-19T07:17:26.837Z,7.25
2023-04-19T07:19:53.819Z,6.75
2023-04-19T07:22:22.202Z,6.97
2023-04-19T07:24:52.072Z,7.13
2023-04-19T07:27:18.965Z,7.78
2023-04-19T07:29:46.499Z,6.97
2023-04-19T07:32:14.139Z,6.68
2023-04-19T07:34:42.413Z,8.82
2023-04-19T07:37:10.253Z,9.38
2023-04-19T07:39:37.168Z,7.00
2023-04-19T07:42:04.177Z,7.53
2023-04-19T07:44:31.206Z,7.88
2023-04-19T07:46:58.328Z,7.10
2023-04-19T07:49:25.443Z,8.05
2023-04-19T07:51:52.480Z,9.23
2023-04-19T07:54:22.309Z,8.25
2023-04-19T07:56:49.325Z,8.45
2023-04-19T07:59:16.341Z,7.72
2023-04-19T08:01:43.647Z,8.85
2023-04-19T08:04:11.015Z,9.85
2023-04-19T08:06:40.575Z,7.07
2023-04-19T08:09:07.948Z,6.88
2023-04-19T08:11:34.939Z,6.93
2023-04-19T08:14:12.056Z,7.35
2023-04-19T08:19:15.773Z,9.63
2023-04-19T08:21:42.709Z,7.38
2023-04-19T08:24:09.683Z,6.78
2023-04-19T08:26:39.039Z,9.70
2023-04-19T08:29:06.075Z,7.55
2023-04-19T08:31:35.887Z,7.95
2023-04-19T08:34:03.922Z,7.60
2023-04-19T08:36:39.184Z,7.10
2023-04-19T08:39:29.382Z,7.45
2023-04-19T08:42:06.609Z,8.02
2023-04-19T08:44:45.347Z,8.95
2023-04-19T08:47:31.178Z,7.45
2023-04-19T08:52:47.856Z,7.45
2023-04-19T08:55:21.698Z,8.05
2023-04-19T08:57:48.873Z,7.72
2023-04-19T09:00:16.357Z,7.90
2023-04-19T09:02:54.315Z,7.80
2023-04-19T09:05:22.494Z,7.93
2023-04-19T09:07:49.801Z,7.65
2023-04-19T09:10:20.265Z,7.90
2023-04-19T09:13:05.327Z,7.72
2023-04-19T09:15:41.914Z,9.55
2023-04-19T09:18:10.498Z,7.43
2023-04-19T09:20:44.026Z,7.78
2023-04-19T09:23:17.395Z,7.53
2023-04-19T09:26:22.197Z,7.53
2023-04-19T09:28:58.084Z,8.52
2023-04-19T09:31:43.245Z,7.28
2023-04-19T09:34:19.446Z,8.73
2023-04-19T09:36:46.870Z,8.07
2023-04-19T09:39:14.765Z,7.63
2023-04-19T09:41:55.000Z,7.47
2023-04-19T09:45:01.755Z,8.82
2023-04-19T09:47:27.839Z,7.53
2023-04-19T09:50:22.567Z,9.05
2023-04-19T09:52:52.761Z,7.57
2023-04-19T09:57:50.139Z,6.85
2023-04-19T10:00:17.270Z,7.13
2023-04-19T10:02:52.262Z,8.13
2023-04-19T10:05:21.616Z,6.88
2023-04-19T10:07:59.909Z,7.38
2023-04-19T10:10:41.287Z,9.38
2023-04-19T10:13:19.670Z,9.25
2023-04-19T10:15:54.135Z,9.98
2023-04-19T10:18:24.657Z,9.25
2023-04-19T10:21:06.796Z,9.20
2023-04-19T10:23:34.674Z,9.25
2023-04-19T10:26:01.573Z,7.43
2023-04-19T10:28:32.360Z,8.85
2023-04-19T10:31:04.944Z,7.88
2023-04-19T10:33:36.802Z,8.27
2023-04-19T10:36:07.338Z,8.85
2023-04-19T10:38:44.811Z,9.45
2023-04-19T10:41:15.453Z,7.60
2023-04-19T10:43:55.692Z,7.95
2023-04-19T10:46:23.035Z,9.10
2023-04-19T10:49:01.010Z,9.82
2023-04-19T10:51:36.554Z,7.85
2023-04-19T10:54:37.461Z,7.68
2023-04-19T10:57:10.242Z,8.30
2023-04-19T10:59:40.414Z,9.18
2023-04-19T11:02:23.067Z,9.15
2023-04-19T11:04:50.193Z,9.27
2023-04-19T11:07:24.067Z,9.30
2023-04-19T11:09:52.541Z,8.48
2023-04-19T11:12:21.062Z,9.75
2023-04-19T11:15:00.002Z,7.22
2023-04-19T11:17:31.806Z,8.30
2023-04-19T11:20:09.317Z,9.38
2023-04-19T11:22:39.506Z,8.85
2023-04-19T11:25:12.717Z,7.28
2023-04-19T11:27:41.491Z,10.95
2023-04-19T11:30:19.452Z,26.70
2023-04-19T11:32:48.945Z,24.58
2023-04-19T11:35:43.554Z,9.02
2023-04-19T11:38:13.979Z,14.52
2023-04-19T11:40:40.885Z,12.52
2023-04-19T11:43:07.944Z,11.25
2023-04-19T11:45:39.481Z,9.52
2023-04-19T11:48:14.484Z,9.18
2023-04-19T11:50:45.857Z,8.90
2023-04-19T11:53:24.928Z,9.43
2023-04-19T11:56:18.929Z,9.38
2023-04-19T11:58:49.989Z,9.63
2023-04-19T12:01:21.015Z,9.70
2023-04-19T12:03:50.534Z,9.70
2023-04-19T12:06:29.115Z,9.63
2023-04-19T12:08:57.069Z,9.43
2023-04-19T12:11:27.129Z,9.02
2023-04-19T12:14:14.595Z,9.88
2023-04-19T12:16:42.781Z,9.82
2023-04-19T12:19:18.543Z,9.55
2023-04-19T12:24:17.729Z,10.50
2023-04-19T12:28:14.510Z,9.93
2023-04-19T12:29:46.079Z,9.70
2023-04-19T12:32:14.685Z,9.38
2023-04-19T12:34:42.052Z,9.23
2023-04-19T12:37:09.100Z,9.73
2023-04-19T12:39:36.030Z,9.95
2023-04-19T12:42:03.285Z,10.05
2023-04-19T12:44:30.433Z,10.20
2023-04-19T12:46:57.793Z,10.43
2023-04-19T12:49:24.908Z,9.77
2023-04-19T12:51:51.884Z,9.75
2023-04-19T12:54:18.852Z,9.80
2023-04-19T12:56:45.736Z,10.50
2023-04-19T12:59:12.724Z,9.50
2023-04-19T13:01:39.700Z,10.80
2023-04-19T13:04:09.127Z,11.20
2023-04-19T13:06:36.398Z,10.15
2023-04-19T13:09:11.398Z,9.13
2023-04-19T13:11:41.119Z,10.30
2023-04-19T13:14:08.203Z,10.50
2023-04-19T13:16:35.068Z,8.23
2023-04-19T13:19:02.007Z,10.25
2023-04-19T13:21:28.967Z,10.55
2023-04-19T13:23:59.925Z,11.15
2023-04-19T13:26:27.143Z,10.55
2023-04-19T13:28:54.190Z,8.98
2023-04-19T13:31:21.161Z,10.90
2023-04-19T13:33:48.189Z,11.07
2023-04-19T13:36:15.316Z,10.82
2023-04-19T13:38:42.377Z,9.57
2023-04-19T13:41:09.702Z,10.43
2023-04-19T13:43:36.728Z,11.18
2023-04-19T13:46:03.660Z,11.70
2023-04-19T13:48:30.612Z,11.40
2023-04-19T13:50:58.948Z,10.73
2023-04-19T13:53:28.815Z,10.80
2023-04-19T13:55:56.266Z,10.98
2023-04-19T13:58:24.806Z,10.82
2023-04-19T14:00:52.439Z,10.93
2023-04-19T14:03:19.660Z,11.20
2023-04-19T14:05:47.018Z,10.40
2023-04-19T14:08:13.935Z,10.93
2023-04-19T14:10:41.447Z,10.60
2023-04-19T14:13:08.440Z,10.38
2023-04-19T14:15:35.356Z,10.73
2023-04-19T14:18:02.889Z,11.07
2023-04-19T14:20:29.892Z,11.77
2023-04-19T14:22:58.937Z,11.35
2023-04-19T14:25:27.831Z,11.15
2023-04-19T14:27:54.796Z,11.57
2023-04-19T14:30:21.796Z,10.90
2023-04-19T14:32:48.791Z,11.80
2023-04-19T14:35:15.758Z,9.25
2023-04-19T14:37:42.853Z,10.10
2023-04-19T14:40:11.153Z,11.75
2023-04-19T14:42:38.192Z,11.52
2023-04-19T14:45:06.002Z,10.75
2023-04-19T14:47:32.937Z,11.18
2023-04-19T14:49:59.986Z,12.18
2023-04-19T14:52:26.952Z,10.82
2023-04-19T14:54:54.541Z,11.18
2023-04-19T14:57:21.528Z,9.50
2023-04-19T14:59:48.424Z,11.05
2023-04-19T15:02:15.513Z,11.55
2023-04-19T15:04:42.884Z,10.77
2023-04-19T15:07:10.137Z,11.63
2023-04-19T15:09:37.075Z,12.23
2023-04-19T15:12:04.175Z,11.60
2023-04-19T15:14:31.079Z,12.50
2023-04-19T15:16:58.013Z,10.70
2023-04-19T15:19:25.054Z,10.13
2023-04-19T15:21:51.929Z,12.40
2023-04-19T15:24:18.977Z,8.65
2023-04-19T15:26:45.945Z,10.77
2023-04-19T15:29:13.019Z,10.45
2023-04-19T15:31:40.225Z,9.30
2023-04-19T15:34:07.241Z,10.85
2023-04-19T15:36:34.174Z,11.05
2023-04-19T15:39:01.271Z,8.55
2023-04-19T15:41:28.280Z,9.15
2023-04-19T15:43:55.859Z,10.52
2023-04-19T15:46:24.196Z,10.23
2023-04-19T15:48:51.209Z,10.98
2023-04-19T15:51:18.110Z,8.60
2023-04-19T15:53:45.014Z,10.15
2023-04-19T15:56:11.973Z,11.07
2023-04-19T15:58:39.066Z,9.73
2023-04-19T16:01:11.759Z,10.93
2023-04-19T16:03:39.487Z,11.20
2023-04-19T16:06:06.617Z,9.70
2023-04-19T16:08:34.036Z,9.13
2023-04-19T16:11:00.941Z,9.02
2023-04-19T16:13:30.073Z,8.48
2023-04-19T16:15:58.357Z,10.95
2023-04-19T16:18:25.345Z,11.05
2023-04-19T16:20:54.137Z,12.05
2023-04-19T16:23:21.052Z,9.85
2023-04-19T16:25:48.056Z,8.77
2023-04-19T16:28:16.529Z,9.75
2023-04-19T16:30:47.353Z,8.63
2023-04-19T16:33:15.644Z,11.05
2023-04-19T16:35:42.721Z,11.10
2023-04-19T16:38:09.708Z,9.82
2023-04-19T16:40:36.669Z,9.65
2023-04-19T16:43:04.766Z,10.65
2023-04-19T16:45:32.122Z,10.10
2023-04-19T16:47:59.397Z,10.63
2023-04-19T16:50:26.344Z,9.57
2023-04-19T16:52:53.280Z,11.20
2023-04-19T16:55:21.679Z,10.50
2023-04-19T16:57:49.408Z,11.90
2023-04-19T17:00:16.741Z,9.65
2023-04-19T17:02:43.778Z,9.25
2023-04-19T17:05:12.652Z,9.77
2023-04-19T17:07:39.772Z,11.95
2023-04-19T17:10:07.696Z,9.85
2023-04-19T17:12:34.675Z,10.02
2023-04-19T17:15:01.587Z,10.75
2023-04-19T17:17:28.520Z,11.73
2023-04-19T17:19:56.923Z,11.02
2023-04-19T17:22:23.870Z,11.57
2023-04-19T17:24:50.928Z,11.27
2023-04-19T17:27:17.818Z,9.05
2023-04-19T17:29:44.958Z,9.48
2023-04-19T17:32:11.916Z,9.13
2023-04-19T17:34:38.846Z,9.30
2023-04-19T17:37:05.783Z,9.20
2023-04-19T17:39:32.751Z,10.82
2023-04-19T17:42:02.554Z,9.00
2023-04-19T17:46:57.295Z,9.68
2023-04-19T17:49:26.463Z,9.32
2023-04-19T17:51:56.024Z,8.93
2023-04-19T17:54:23.248Z,9.68
2023-04-19T17:56:52.410Z,11.98
2023-04-19T17:59:19.484Z,9.52
2023-04-19T18:01:46.466Z,9.32
2023-04-19T18:04:17.699Z,8.80
2023-04-19T18:06:45.709Z,11.02
2023-04-19T18:09:15.525Z,9.95
2023-04-19T18:11:42.816Z,9.32
2023-04-19T18:14:09.915Z,9.98
2023-04-19T18:16:37.110Z,11.00
2023-04-19T18:19:04.105Z,11.43
2023-04-19T18:21:31.102Z,10.13
2023-04-19T18:23:58.116Z,9.55
2023-04-19T18:26:25.422Z,9.10
2023-04-19T18:28:52.295Z,9.73
2023-04-19T18:31:19.189Z,11.38
2023-04-19T18:33:46.233Z,8.98
2023-04-19T18:36:13.265Z,8.65
2023-04-19T18:38:40.173Z,9.30
2023-04-19T18:41:07.177Z,10.40
2023-04-19T18:43:34.135Z,10.70
2023-04-19T18:46:01.428Z,9.18
2023-04-19T18:48:29.653Z,8.32
2023-04-19T18:51:23.567Z,9.90
2023-04-19T18:53:51.811Z,7.93
2023-04-19T18:56:19.230Z,9.05
2023-04-19T18:58:46.397Z,7.43
2023-04-19T19:01:13.352Z,6.30
2023-04-19T19:04:02.904Z,7.28
2023-04-19T19:06:27.679Z,7.05
2023-04-19T19:08:55.005Z,6.88
2023-04-19T19:11:47.084Z,8.23
2023-04-19T19:14:09.851Z,6.88
2023-04-19T19:16:50.892Z,7.75
2023-04-19T19:19:20.660Z,6.60
2023-04-19T19:21:48.301Z,6.03
2023-04-19T19:24:15.217Z,6.18
2023-04-19T19:26:42.137Z,5.95
2023-04-19T19:29:11.294Z,5.65
2023-04-19T19:31:38.341Z,6.20
2023-04-19T19:34:22.597Z,5.85
2023-04-19T19:36:52.645Z,5.80
2023-04-19T19:39:19.528Z,6.03
2023-04-19T19:42:03.629Z,6.70
2023-04-19T19:44:32.665Z,7.90
2023-04-19T19:46:59.632Z,6.90
2023-04-19T19:49:27.481Z,7.05
2023-04-19T19:51:59.137Z,6.93
2023-04-19T19:54:26.814Z,6.95
2023-04-19T19:57:39.126Z,6.82
2023-04-19T19:59:49.180Z,6.60
2023-04-19T20:02:19.646Z,7.28
2023-04-19T20:04:46.808Z,6.82
2023-04-19T20:09:44.179Z,6.72
2023-04-19T20:12:13.220Z,8.30
2023-04-19T20:14:40.641Z,8.38
2023-04-19T20:17:07.980Z,7.22
2023-04-19T20:19:35.845Z,8.82
2023-04-19T20:22:02.859Z,6.82
2023-04-19T20:24:31.698Z,8.00
2023-04-19T20:26:58.749Z,6.40
2023-04-19T20:29:25.675Z,6.95
2023-04-19T20:31:52.727Z,6.63
2023-04-19T20:34:19.717Z,7.13
2023-04-19T20:36:46.993Z,7.47
2023-04-19T20:39:14.176Z,7.07
2023-04-19T20:41:41.268Z,7.00
2023-04-19T20:44:08.201Z,9.05
2023-04-19T20:46:35.853Z,9.48
2023-04-19T20:49:02.745Z,8.07
2023-04-19T20:51:29.733Z,7.30
2023-04-19T20:53:56.666Z,8.30
2023-04-19T20:56:24.322Z,11.18
2023-04-19T20:58:51.434Z,7.15
2023-04-19T21:01:19.149Z,8.38
2023-04-19T21:03:46.652Z,7.90
2023-04-19T21:06:13.682Z,8.85
2023-04-19T21:08:40.630Z,9.10
2023-04-19T21:11:07.534Z,8.60
2023-04-19T21:13:34.612Z,7.88
2023-04-19T21:16:01.606Z,6.90
2023-04-19T21:18:29.996Z,7.50
2023-04-19T21:20:58.769Z,6.82
2023-04-19T21:23:25.809Z,8.48
2023-04-19T21:25:52.809Z,8.00
2023-04-19T21:28:20.301Z,7.15
2023-04-19T21:30:47.197Z,7.10
2023-04-19T21:33:14.156Z,7.10
2023-04-19T21:35:41.125Z,9.00
2023-04-19T21:38:08.140Z,7.05
2023-04-19T21:40:35.053Z,6.82
2023-04-19T21:43:01.994Z,7.63
2023-04-19T21:45:28.906Z,7.05
2023-04-19T21:47:56.140Z,6.28
2023-04-19T21:50:23.133Z,6.03
2023-04-19T21:52:50.097Z,6.45
2023-04-19T21:55:17.100Z,6.25
2023-04-19T21:57:43.983Z,8.73
2023-04-19T22:00:11.567Z,7.90
2023-04-19T22:02:41.175Z,6.47
2023-04-19T22:05:10.004Z,7.28
2023-04-19T22:07:38.415Z,8.77
2023-04-19T22:10:06.688Z,6.97
2023-04-19T22:12:34.335Z,5.90
2023-04-19T22:15:02.324Z,6.40
2023-04-19T22:17:29.916Z,6.68
2023-04-19T22:19:59.091Z,6.55
2023-04-19T22:22:26.220Z,7.55
2023-04-19T22:24:58.010Z,6.35
2023-04-19T22:27:25.685Z,6.50
2023-04-19T22:29:53.143Z,8.35
2023-04-19T22:32:20.255Z,6.55
2023-04-19T22:34:47.299Z,6.55
2023-04-19T22:37:14.328Z,6.38
2023-04-19T22:39:41.224Z,8.18
2023-04-19T22:42:08.116Z,6.63
2023-04-19T22:44:35.259Z,7.00
2023-04-19T22:47:03.381Z,7.90
2023-04-19T22:49:30.379Z,7.30
2023-04-19T22:51:58.535Z,6.57
2023-04-19T22:54:26.560Z,7.07
2023-04-19T22:56:53.497Z,8.75
2023-04-19T22:59:20.612Z,6.68
2023-04-19T23:01:47.662Z,6.10
2023-04-19T23:04:15.217Z,7.85
2023-04-19T23:06:44.116Z,6.50
2023-04-19T23:09:13.692Z,6.40
2023-04-19T23:11:41.375Z,6.57
2023-04-19T23:14:11.680Z,7.43
2023-04-19T23:16:38.797Z,6.97
2023-04-19T23:19:07.551Z,6.57
2023-04-19T23:21:34.689Z,7.45
2023-04-19T23:24:01.651Z,7.40
2023-04-19T23:26:29.893Z,6.28
2023-04-19T23:28:56.833Z,6.82
2023-04-19T23:31:23.828Z,7.07
2023-04-19T23:33:50.833Z,7.28
2023-04-19T23:36:17.822Z,7.18
2023-04-19T23:38:44.828Z,7.22
2023-04-19T23:41:14.495Z,6.55
2023-04-19T23:43:41.421Z,8.30
2023-04-19T23:46:08.494Z,6.55
2023-04-19T23:48:35.582Z,6.35
2023-04-19T23:51:04.403Z,6.93
2023-04-19T23:53:31.561Z,6.97
2023-04-19T23:55:58.520Z,6.97
2023-04-19T23:58:25.409Z,7.28
